sensor_id;sensor_type;location;lat;lon;timestamp;pressure;altitude;pressure_sealevel;temperature;humidity
28428;BME280;15662;49.128;8.520;2023-07-16T00:01:37;100251.38;;;26.32;54.79
28428;BME280;15662;49.128;8.520;2023-07-16T00:04:05;100258.09;;;26.28;55.04
28428;BME280;15662;49.128;8.520;2023-07-16T00:06:34;100227.50;;;26.26;55.09
28428;BME280;15662;49.128;8.520;2023-07-16T00:09:03;100214.78;;;26.26;55.11
28428;BME280;15662;49.128;8.520;2023-07-16T00:11:33;100231.50;;;26.21;55.40
28428;BME280;15662;49.128;8.520;2023-07-16T00:14:01;100230.06;;;26.08;55.51
28428;BME280;15662;49.128;8.520;2023-07-16T00:16:29;100214.91;;;26.05;55.58
28428;BME280;15662;49.128;8.520;2023-07-16T00:18:58;100209.03;;;26.10;55.78
28428;BME280;15662;49.128;8.520;2023-07-16T00:21:29;100192.31;;;26.05;56.00
28428;BME280;15662;49.128;8.520;2023-07-16T00:23:57;100217.34;;;26.08;56.00
28428;BME280;15662;49.128;8.520;2023-07-16T00:26:26;100204.75;;;25.88;55.79
28428;BME280;15662;49.128;8.520;2023-07-16T00:28:55;100176.75;;;25.87;56.04
28428;BME280;15662;49.128;8.520;2023-07-16T00:31:26;100184.69;;;25.69;55.94
28428;BME280;15662;49.128;8.520;2023-07-16T00:33:55;100187.72;;;25.86;55.88
28428;BME280;15662;49.128;8.520;2023-07-16T00:36:25;100188.75;;;25.85;55.64
28428;BME280;15662;49.128;8.520;2023-07-16T00:38:54;100189.91;;;25.92;55.69
28428;BME280;15662;49.128;8.520;2023-07-16T00:41:22;100202.47;;;25.93;55.43
28428;BME280;15662;49.128;8.520;2023-07-16T00:43:52;100220.63;;;25.92;55.52
28428;BME280;15662;49.128;8.520;2023-07-16T00:46:23;100217.16;;;25.81;55.53
28428;BME280;15662;49.128;8.520;2023-07-16T00:48:52;100248.03;;;25.80;55.46
28428;BME280;15662;49.128;8.520;2023-07-16T00:51:24;100224.25;;;25.62;55.82
28428;BME280;15662;49.128;8.520;2023-07-16T00:53:53;100230.22;;;25.56;55.32
28428;BME280;15662;49.128;8.520;2023-07-16T00:56:22;100217.22;;;25.50;55.32
28428;BME280;15662;49.128;8.520;2023-07-16T00:58:52;100243.34;;;25.51;54.89
28428;BME280;15662;49.128;8.520;2023-07-16T01:01:22;100265.03;;;25.41;55.02
28428;BME280;15662;49.128;8.520;2023-07-16T01:03:51;100253.16;;;25.33;54.80
28428;BME280;15662;49.128;8.520;2023-07-16T01:06:48;100242.69;;;25.18;54.39
28428;BME280;15662;49.128;8.520;2023-07-16T01:09:20;100275.03;;;25.10;54.66
28428;BME280;15662;49.128;8.520;2023-07-16T01:11:50;100281.84;;;25.05;54.66
28428;BME280;15662;49.128;8.520;2023-07-16T01:14:19;100294.88;;;25.11;54.57
28428;BME280;15662;49.128;8.520;2023-07-16T01:16:49;100293.75;;;24.92;54.54
28428;BME280;15662;49.128;8.520;2023-07-16T01:19:18;100313.72;;;24.91;54.69
28428;BME280;15662;49.128;8.520;2023-07-16T01:30:48;100302.88;;;24.70;54.26
28428;BME280;15662;49.128;8.520;2023-07-16T01:33:19;100269.63;;;24.68;54.35
28428;BME280;15662;49.128;8.520;2023-07-16T01:35:49;100266.19;;;24.66;54.15
28428;BME280;15662;49.128;8.520;2023-07-16T01:38:20;100282.06;;;24.71;54.20
28428;BME280;15662;49.128;8.520;2023-07-16T01:40:49;100289.47;;;24.69;54.44
28428;BME280;15662;49.128;8.520;2023-07-16T01:43:19;100286.75;;;24.69;54.26
28428;BME280;15662;49.128;8.520;2023-07-16T01:45:49;100283.44;;;24.65;54.60
28428;BME280;15662;49.128;8.520;2023-07-16T01:48:33;100290.56;;;24.66;54.39
28428;BME280;15662;49.128;8.520;2023-07-16T01:51:03;100291.13;;;24.60;54.67
28428;BME280;15662;49.128;8.520;2023-07-16T01:53:32;100303.03;;;24.69;54.75
28428;BME280;15662;49.128;8.520;2023-07-16T01:56:03;100304.72;;;24.70;54.53
28428;BME280;15662;49.128;8.520;2023-07-16T01:58:31;100307.81;;;24.44;54.71
28428;BME280;15662;49.128;8.520;2023-07-16T02:00:59;100309.47;;;24.57;54.66
28428;BME280;15662;49.128;8.520;2023-07-16T02:03:28;100313.41;;;24.64;54.45
28428;BME280;15662;49.128;8.520;2023-07-16T02:05:56;100306.75;;;24.57;54.74
28428;BME280;15662;49.128;8.520;2023-07-16T02:08:26;100312.19;;;24.57;54.53
28428;BME280;15662;49.128;8.520;2023-07-16T02:10:55;100325.81;;;24.66;54.74
28428;BME280;15662;49.128;8.520;2023-07-16T02:13:23;100323.72;;;24.70;55.00
28428;BME280;15662;49.128;8.520;2023-07-16T02:15:52;100313.97;;;24.67;54.72
28428;BME280;15662;49.128;8.520;2023-07-16T02:18:20;100335.41;;;24.70;54.93
28428;BME280;15662;49.128;8.520;2023-07-16T02:20:48;100333.69;;;24.69;54.90
28428;BME280;15662;49.128;8.520;2023-07-16T02:23:17;100319.59;;;24.55;55.14
28428;BME280;15662;49.128;8.520;2023-07-16T02:25:45;100340.34;;;24.65;55.03
28428;BME280;15662;49.128;8.520;2023-07-16T02:28:16;100330.03;;;24.59;54.66
28428;BME280;15662;49.128;8.520;2023-07-16T02:30:44;100339.03;;;24.60;54.62
28428;BME280;15662;49.128;8.520;2023-07-16T02:33:13;100344.44;;;24.60;54.65
28428;BME280;15662;49.128;8.520;2023-07-16T02:35:49;100334.72;;;24.57;54.33
28428;BME280;15662;49.128;8.520;2023-07-16T02:38:19;100335.91;;;24.43;54.17
28428;BME280;15662;49.128;8.520;2023-07-16T02:40:48;100356.44;;;24.46;54.12
28428;BME280;15662;49.128;8.520;2023-07-16T02:43:17;100360.69;;;24.39;54.23
28428;BME280;15662;49.128;8.520;2023-07-16T02:45:46;100367.41;;;24.33;54.42
28428;BME280;15662;49.128;8.520;2023-07-16T02:48:15;100375.44;;;24.35;54.09
28428;BME280;15662;49.128;8.520;2023-07-16T02:50:43;100372.81;;;24.33;54.07
28428;BME280;15662;49.128;8.520;2023-07-16T02:53:11;100367.06;;;24.27;54.02
28428;BME280;15662;49.128;8.520;2023-07-16T02:55:40;100371.84;;;24.34;54.06
28428;BME280;15662;49.128;8.520;2023-07-16T02:58:08;100386.25;;;24.35;54.15
28428;BME280;15662;49.128;8.520;2023-07-16T03:00:37;100380.75;;;24.36;54.19
28428;BME280;15662;49.128;8.520;2023-07-16T03:03:06;100364.00;;;24.20;54.15
28428;BME280;15662;49.128;8.520;2023-07-16T03:05:35;100383.19;;;24.28;54.28
28428;BME280;15662;49.128;8.520;2023-07-16T03:08:03;100378.91;;;24.26;54.19
28428;BME280;15662;49.128;8.520;2023-07-16T03:10:31;100363.88;;;24.22;54.30
28428;BME280;15662;49.128;8.520;2023-07-16T03:13:00;100388.59;;;24.28;54.31
28428;BME280;15662;49.128;8.520;2023-07-16T03:15:28;100379.50;;;24.29;54.06
28428;BME280;15662;49.128;8.520;2023-07-16T03:17:56;100359.59;;;24.19;54.23
28428;BME280;15662;49.128;8.520;2023-07-16T03:20:25;100381.47;;;24.27;54.22
28428;BME280;15662;49.128;8.520;2023-07-16T03:22:54;100375.56;;;24.22;54.34
28428;BME280;15662;49.128;8.520;2023-07-16T03:29:24;100375.72;;;23.98;54.33
28428;BME280;15662;49.128;8.520;2023-07-16T03:31:54;100380.56;;;23.94;54.60
28428;BME280;15662;49.128;8.520;2023-07-16T03:34:23;100391.03;;;23.99;54.40
28428;BME280;15662;49.128;8.520;2023-07-16T03:36:52;100396.28;;;24.01;54.26
28428;BME280;15662;49.128;8.520;2023-07-16T03:39:21;100383.88;;;23.87;54.55
28428;BME280;15662;49.128;8.520;2023-07-16T03:41:51;100394.69;;;23.87;54.46
28428;BME280;15662;49.128;8.520;2023-07-16T03:44:22;100412.66;;;23.88;54.46
28428;BME280;15662;49.128;8.520;2023-07-16T03:46:52;100416.50;;;23.85;54.60
28428;BME280;15662;49.128;8.520;2023-07-16T03:49:21;100413.53;;;23.77;54.60
28428;BME280;15662;49.128;8.520;2023-07-16T03:51:49;100426.69;;;23.82;54.38
28428;BME280;15662;49.128;8.520;2023-07-16T03:54:18;100426.69;;;23.82;54.47
28428;BME280;15662;49.128;8.520;2023-07-16T03:56:46;100435.66;;;23.82;54.25
28428;BME280;15662;49.128;8.520;2023-07-16T03:59:17;100432.25;;;23.80;54.20
28428;BME280;15662;49.128;8.520;2023-07-16T04:01:47;100421.78;;;23.64;54.51
28428;BME280;15662;49.128;8.520;2023-07-16T04:04:16;100447.50;;;23.81;54.69
28428;BME280;15662;49.128;8.520;2023-07-16T04:06:45;100436.03;;;23.78;54.37
28428;BME280;15662;49.128;8.520;2023-07-16T04:09:14;100451.69;;;23.85;54.69
28428;BME280;15662;49.128;8.520;2023-07-16T04:11:43;100449.97;;;23.84;54.66
28428;BME280;15662;49.128;8.520;2023-07-16T04:14:13;100447.63;;;23.80;54.65
28428;BME280;15662;49.128;8.520;2023-07-16T04:16:43;100456.34;;;23.83;55.02
28428;BME280;15662;49.128;8.520;2023-07-16T04:19:12;100454.50;;;23.84;54.84
28428;BME280;15662;49.128;8.520;2023-07-16T04:21:42;100449.97;;;23.84;54.96
28428;BME280;15662;49.128;8.520;2023-07-16T04:24:11;100456.34;;;23.83;55.00
28428;BME280;15662;49.128;8.520;2023-07-16T04:26:41;100469.78;;;23.85;55.07
28428;BME280;15662;49.128;8.520;2023-07-16T04:29:10;100444.44;;;23.75;55.00
28428;BME280;15662;49.128;8.520;2023-07-16T04:31:40;100454.50;;;23.84;55.08
28428;BME280;15662;49.128;8.520;2023-07-16T04:34:13;100469.88;;;23.83;54.97
28428;BME280;15662;49.128;8.520;2023-07-16T04:36:45;100481.47;;;23.85;54.86
28428;BME280;15662;49.128;8.520;2023-07-16T04:39:17;100476.13;;;23.84;55.10
28428;BME280;15662;49.128;8.520;2023-07-16T04:41:45;100471.84;;;23.81;55.08
28428;BME280;15662;49.128;8.520;2023-07-16T04:44:15;100474.91;;;23.77;55.25
28428;BME280;15662;49.128;8.520;2023-07-16T04:46:43;100488.31;;;23.78;55.13
28428;BME280;15662;49.128;8.520;2023-07-16T04:49:12;100479.84;;;23.72;55.12
28428;BME280;15662;49.128;8.520;2023-07-16T04:51:41;100487.59;;;23.76;55.44
28428;BME280;15662;49.128;8.520;2023-07-16T04:54:09;100489.81;;;23.71;55.45
28428;BME280;15662;49.128;8.520;2023-07-16T04:56:39;100490.44;;;23.75;55.48
28428;BME280;15662;49.128;8.520;2023-07-16T04:59:10;100494.22;;;23.72;55.70
28428;BME280;15662;49.128;8.520;2023-07-16T05:01:39;100487.47;;;23.66;55.78
28428;BME280;15662;49.128;8.520;2023-07-16T05:04:10;100490.53;;;23.73;55.77
28428;BME280;15662;49.128;8.520;2023-07-16T05:06:40;100478.19;;;23.58;55.68
28428;BME280;15662;49.128;8.520;2023-07-16T05:09:10;100468.22;;;23.58;55.70
28428;BME280;15662;49.128;8.520;2023-07-16T05:11:42;100491.16;;;23.65;55.65
28428;BME280;15662;49.128;8.520;2023-07-16T05:14:10;100492.75;;;23.68;55.99
28428;BME280;15662;49.128;8.520;2023-07-16T05:16:40;100498.78;;;23.72;56.05
28428;BME280;15662;49.128;8.520;2023-07-16T05:19:09;100479.16;;;23.57;56.28
28428;BME280;15662;49.128;8.520;2023-07-16T05:21:39;100490.72;;;23.59;56.01
28428;BME280;15662;49.128;8.520;2023-07-16T05:24:08;100511.31;;;23.73;55.91
28428;BME280;15662;49.128;8.520;2023-07-16T05:26:38;100490.28;;;23.65;56.02
28428;BME280;15662;49.128;8.520;2023-07-16T05:29:06;100507.63;;;23.74;56.15
28428;BME280;15662;49.128;8.520;2023-07-16T05:31:37;100513.31;;;23.82;56.02
28428;BME280;15662;49.128;8.520;2023-07-16T05:34:06;100503.84;;;23.76;56.08
28428;BME280;15662;49.128;8.520;2023-07-16T05:36:36;100503.47;;;23.81;56.01
28428;BME280;15662;49.128;8.520;2023-07-16T05:39:05;100507.03;;;23.81;55.94
28428;BME280;15662;49.128;8.520;2023-07-16T05:41:35;100516.75;;;23.84;55.72
28428;BME280;15662;49.128;8.520;2023-07-16T05:44:04;100514.28;;;23.81;55.88
28428;BME280;15662;49.128;8.520;2023-07-16T05:46:35;100516.66;;;23.85;55.92
28428;BME280;15662;49.128;8.520;2023-07-16T05:49:07;100510.59;;;23.82;55.74
28428;BME280;15662;49.128;8.520;2023-07-16T05:51:37;100526.25;;;23.89;55.75
28428;BME280;15662;49.128;8.520;2023-07-16T05:54:06;100530.78;;;23.89;55.42
28428;BME280;15662;49.128;8.520;2023-07-16T05:56:36;100528.59;;;23.94;55.50
28428;BME280;15662;49.128;8.520;2023-07-16T05:59:04;100522.44;;;23.92;55.65
28428;BME280;15662;49.128;8.520;2023-07-16T06:01:33;100513.94;;;23.85;55.82
28428;BME280;15662;49.128;8.520;2023-07-16T06:04:02;100518.38;;;23.98;55.59
28428;BME280;15662;49.128;8.520;2023-07-16T06:06:32;100525.88;;;24.05;55.89
28428;BME280;15662;49.128;8.520;2023-07-16T06:09:01;100512.44;;;24.04;55.45
28428;BME280;15662;49.128;8.520;2023-07-16T06:11:35;100529.47;;;24.17;55.54
28428;BME280;15662;49.128;8.520;2023-07-16T06:14:05;100533.16;;;24.27;55.65
28428;BME280;15662;49.128;8.520;2023-07-16T06:16:34;100541.31;;;24.38;55.45
28428;BME280;15662;49.128;8.520;2023-07-16T06:19:04;100541.81;;;24.43;55.43
28428;BME280;15662;49.128;8.520;2023-07-16T06:21:38;100519.66;;;24.38;55.01
28428;BME280;15662;49.128;8.520;2023-07-16T06:24:07;100539.72;;;24.58;55.29
28428;BME280;15662;49.128;8.520;2023-07-16T06:26:37;100526.50;;;24.65;55.19
28428;BME280;15662;49.128;8.520;2023-07-16T06:29:12;100550.63;;;24.79;54.86
28428;BME280;15662;49.128;8.520;2023-07-16T06:31:57;100547.88;;;24.90;54.92
28428;BME280;15662;49.128;8.520;2023-07-16T06:34:26;100557.84;;;25.01;55.31
28428;BME280;15662;49.128;8.520;2023-07-16T06:36:55;100562.75;;;25.18;54.69
28428;BME280;15662;49.128;8.520;2023-07-16T06:39:25;100557.13;;;25.31;54.06
28428;BME280;15662;49.128;8.520;2023-07-16T06:41:54;100557.13;;;25.42;53.63
28428;BME280;15662;49.128;8.520;2023-07-16T06:44:23;100540.44;;;25.47;53.38
28428;BME280;15662;49.128;8.520;2023-07-16T06:46:51;100538.78;;;25.56;52.95
28428;BME280;15662;49.128;8.520;2023-07-16T06:49:22;100552.97;;;25.80;52.92
28428;BME280;15662;49.128;8.520;2023-07-16T06:51:52;100552.19;;;25.89;52.70
28428;BME280;15662;49.128;8.520;2023-07-16T06:54:22;100533.22;;;25.99;52.50
28428;BME280;15662;49.128;8.520;2023-07-16T06:56:53;100555.38;;;26.25;52.50
28428;BME280;15662;49.128;8.520;2023-07-16T06:59:24;100541.13;;;26.33;51.58
28428;BME280;15662;49.128;8.520;2023-07-16T07:01:56;100539.00;;;26.36;51.15
28428;BME280;15662;49.128;8.520;2023-07-16T07:04:27;100557.09;;;26.47;50.67
28428;BME280;15662;49.128;8.520;2023-07-16T07:06:57;100541.53;;;26.28;50.03
28428;BME280;15662;49.128;8.520;2023-07-16T07:09:28;100537.75;;;26.19;49.60
28428;BME280;15662;49.128;8.520;2023-07-16T07:12:01;100549.00;;;26.36;49.80
28428;BME280;15662;49.128;8.520;2023-07-16T07:14:33;100559.66;;;26.48;49.51
28428;BME280;15662;49.128;8.520;2023-07-16T07:17:01;100561.81;;;26.55;49.15
28428;BME280;15662;49.128;8.520;2023-07-16T07:19:34;100540.22;;;26.53;48.73
28428;BME280;15662;49.128;8.520;2023-07-16T07:22:04;100537.06;;;26.48;48.21
28428;BME280;15662;49.128;8.520;2023-07-16T07:24:33;100541.38;;;26.51;48.38
28428;BME280;15662;49.128;8.520;2023-07-16T07:27:02;100545.34;;;26.46;48.17
28428;BME280;15662;49.128;8.520;2023-07-16T07:29:34;100562.97;;;26.52;47.99
28428;BME280;15662;49.128;8.520;2023-07-16T07:32:05;100565.50;;;26.44;47.88
28428;BME280;15662;49.128;8.520;2023-07-16T07:34:39;100578.91;;;26.36;47.73
28428;BME280;15662;49.128;8.520;2023-07-16T07:37:10;100562.94;;;26.21;47.83
28428;BME280;15662;49.128;8.520;2023-07-16T07:39:39;100573.88;;;26.10;48.30
28428;BME280;15662;49.128;8.520;2023-07-16T07:42:13;100553.03;;;26.11;48.12
28428;BME280;15662;49.128;8.520;2023-07-16T07:44:47;100573.28;;;26.28;47.93
28428;BME280;15662;49.128;8.520;2023-07-16T07:47:17;100572.56;;;26.26;47.91
28428;BME280;15662;49.128;8.520;2023-07-16T07:49:49;100575.28;;;26.26;47.57
28428;BME280;15662;49.128;8.520;2023-07-16T07:52:17;100566.78;;;26.19;47.17
28428;BME280;15662;49.128;8.520;2023-07-16T07:54:47;100581.56;;;26.26;47.10
28428;BME280;15662;49.128;8.520;2023-07-16T07:57:21;100590.28;;;26.30;46.98
28428;BME280;15662;49.128;8.520;2023-07-16T07:59:52;100579.31;;;26.31;47.00
28428;BME280;15662;49.128;8.520;2023-07-16T08:02:32;100591.06;;;26.41;46.83
28428;BME280;15662;49.128;8.520;2023-07-16T08:05:03;100571.94;;;26.43;46.68
28428;BME280;15662;49.128;8.520;2023-07-16T08:07:32;100582.59;;;26.56;46.56
28428;BME280;15662;49.128;8.520;2023-07-16T08:10:02;100587.19;;;26.65;46.25
28428;BME280;15662;49.128;8.520;2023-07-16T08:12:34;100573.25;;;26.48;46.29
28428;BME280;15662;49.128;8.520;2023-07-16T08:15:07;100578.88;;;26.57;46.02
28428;BME280;15662;49.128;8.520;2023-07-16T08:17:38;100577.88;;;26.58;46.01
28428;BME280;15662;49.128;8.520;2023-07-16T08:20:10;100569.44;;;26.61;45.96
28428;BME280;15662;49.128;8.520;2023-07-16T08:22:41;100582.66;;;26.75;45.91
28428;BME280;15662;49.128;8.520;2023-07-16T08:25:10;100574.94;;;26.80;45.35
28428;BME280;15662;49.128;8.520;2023-07-16T08:27:39;100572.22;;;26.80;45.07
28428;BME280;15662;49.128;8.520;2023-07-16T08:30:09;100549.44;;;26.71;44.68
28428;BME280;15662;49.128;8.520;2023-07-16T08:32:40;100569.59;;;26.69;44.53
28428;BME280;15662;49.128;8.520;2023-07-16T08:35:10;100554.03;;;26.71;44.63
28428;BME280;15662;49.128;8.520;2023-07-16T08:37:51;100563.31;;;26.78;44.80
28428;BME280;15662;49.128;8.520;2023-07-16T08:40:30;100560.75;;;26.77;44.30
28428;BME280;15662;49.128;8.520;2023-07-16T08:43:03;100563.06;;;26.81;44.29
28428;BME280;15662;49.128;8.520;2023-07-16T08:45:49;100577.13;;;26.96;43.83
28428;BME280;15662;49.128;8.520;2023-07-16T08:48:28;100558.19;;;26.94;43.83
28428;BME280;15662;49.128;8.520;2023-07-16T08:50:59;100577.31;;;27.14;43.93
28428;BME280;15662;49.128;8.520;2023-07-16T08:53:37;100552.41;;;27.18;43.68
28428;BME280;15662;49.128;8.520;2023-07-16T08:56:17;100563.88;;;27.32;43.30
28428;BME280;15662;49.128;8.520;2023-07-16T08:58:57;100578.94;;;27.55;43.06
28428;BME280;15662;49.128;8.520;2023-07-16T09:01:30;100570.75;;;27.55;42.87
28428;BME280;15662;49.128;8.520;2023-07-16T09:04:00;100582.34;;;27.67;42.63
28428;BME280;15662;49.128;8.520;2023-07-16T09:06:34;100585.09;;;27.76;42.84
28428;BME280;15662;49.128;8.520;2023-07-16T09:09:04;100587.38;;;27.81;42.72
28428;BME280;15662;49.128;8.520;2023-07-16T09:11:36;100589.69;;;27.86;42.61
28428;BME280;15662;49.128;8.520;2023-07-16T09:14:21;100571.63;;;27.85;42.35
28428;BME280;15662;49.128;8.520;2023-07-16T09:16:51;100585.50;;;27.91;42.75
28428;BME280;15662;49.128;8.520;2023-07-16T09:19:25;100584.19;;;28.05;42.58
28428;BME280;15662;49.128;8.520;2023-07-16T09:21:56;100576.41;;;28.20;42.81
28428;BME280;15662;49.128;8.520;2023-07-16T09:24:29;100580.66;;;28.42;42.33
28428;BME280;15662;49.128;8.520;2023-07-16T09:27:01;100578.91;;;28.50;41.62
28428;BME280;15662;49.128;8.520;2023-07-16T09:29:50;100557.84;;;28.43;41.00
28428;BME280;15662;49.128;8.520;2023-07-16T09:32:19;100580.59;;;28.51;40.84
28428;BME280;15662;49.128;8.520;2023-07-16T09:34:50;100581.06;;;28.47;40.29
28428;BME280;15662;49.128;8.520;2023-07-16T09:37:18;100587.25;;;28.49;40.21
28428;BME280;15662;49.128;8.520;2023-07-16T09:39:47;100571.28;;;28.54;40.02
28428;BME280;15662;49.128;8.520;2023-07-16T09:42:16;100588.63;;;28.63;39.81
28428;BME280;15662;49.128;8.520;2023-07-16T09:44:48;100581.44;;;28.62;38.92
28428;BME280;15662;49.128;8.520;2023-07-16T09:47:17;100581.00;;;28.57;38.33
28428;BME280;15662;49.128;8.520;2023-07-16T09:49:44;100584.06;;;28.53;38.48
28428;BME280;15662;49.128;8.520;2023-07-16T09:52:13;100583.25;;;28.43;38.16
28428;BME280;15662;49.128;8.520;2023-07-16T09:54:43;100584.97;;;28.44;38.09
28428;BME280;15662;49.128;8.520;2023-07-16T09:57:14;100580.53;;;28.43;38.09
28428;BME280;15662;49.128;8.520;2023-07-16T09:59:43;100580.06;;;28.48;37.64
28428;BME280;15662;49.128;8.520;2023-07-16T10:02:11;100576.75;;;28.54;37.61
28428;BME280;15662;49.128;8.520;2023-07-16T10:04:40;100573.56;;;28.59;37.41
28428;BME280;15662;49.128;8.520;2023-07-16T10:07:22;100582.56;;;28.69;36.99
28428;BME280;15662;49.128;8.520;2023-07-16T10:09:56;100583.66;;;28.76;36.51
28428;BME280;15662;49.128;8.520;2023-07-16T10:12:26;100578.19;;;28.76;36.96
28428;BME280;15662;49.128;8.520;2023-07-16T10:14:59;100579.31;;;28.83;36.95
28428;BME280;15662;49.128;8.520;2023-07-16T10:17:32;100582.44;;;28.88;36.83
28428;BME280;15662;49.128;8.520;2023-07-16T10:20:09;100588.47;;;28.92;36.65
28428;BME280;15662;49.128;8.520;2023-07-16T10:22:46;100595.91;;;28.99;36.29
28428;BME280;15662;49.128;8.520;2023-07-16T10:27:51;100581.81;;;29.04;36.36
28428;BME280;15662;49.128;8.520;2023-07-16T10:30:19;100585.22;;;29.06;36.77
28428;BME280;15662;49.128;8.520;2023-07-16T10:32:50;100576.44;;;29.12;36.30
28428;BME280;15662;49.128;8.520;2023-07-16T10:35:18;100579.69;;;29.16;36.51
28428;BME280;15662;49.128;8.520;2023-07-16T10:37:46;100559.28;;;29.20;36.41
28428;BME280;15662;49.128;8.520;2023-07-16T10:40:17;100565.84;;;29.27;36.21
28428;BME280;15662;49.128;8.520;2023-07-16T10:42:52;100575.34;;;29.23;35.53
28428;BME280;15662;49.128;8.520;2023-07-16T10:45:21;100568.31;;;29.20;34.96
28428;BME280;15662;49.128;8.520;2023-07-16T10:47:55;100575.34;;;29.23;35.00
28428;BME280;15662;49.128;8.520;2023-07-16T10:50:24;100586.28;;;29.23;35.14
28428;BME280;15662;49.128;8.520;2023-07-16T10:52:53;100571.31;;;29.27;34.74
28428;BME280;15662;49.128;8.520;2023-07-16T10:55:23;100570.97;;;29.30;35.01
28428;BME280;15662;49.128;8.520;2023-07-16T10:57:51;100570.13;;;29.29;34.47
28428;BME280;15662;49.128;8.520;2023-07-16T11:00:19;100574.03;;;29.27;34.59
28428;BME280;15662;49.128;8.520;2023-07-16T11:02:52;100573.03;;;29.28;34.46
28428;BME280;15662;49.128;8.520;2023-07-16T11:05:20;100574.03;;;29.27;34.34
28428;BME280;15662;49.128;8.520;2023-07-16T11:07:49;100554.94;;;29.27;34.48
28428;BME280;15662;49.128;8.520;2023-07-16T11:10:23;100566.38;;;29.30;34.93
28428;BME280;15662;49.128;8.520;2023-07-16T11:12:53;100562.88;;;29.38;34.98
28428;BME280;15662;49.128;8.520;2023-07-16T11:15:33;100566.53;;;29.47;34.75
28428;BME280;15662;49.128;8.520;2023-07-16T11:18:02;100563.94;;;29.45;34.63
28428;BME280;15662;49.128;8.520;2023-07-16T11:20:31;100573.13;;;29.54;33.98
28428;BME280;15662;49.128;8.520;2023-07-16T11:22:59;100557.28;;;29.58;34.49
28428;BME280;15662;49.128;8.520;2023-07-16T11:25:29;100558.72;;;29.70;34.24
28428;BME280;15662;49.128;8.520;2023-07-16T11:27:57;100555.91;;;29.79;34.43
28428;BME280;15662;49.128;8.520;2023-07-16T11:30:25;100546.22;;;29.85;34.48
28428;BME280;15662;49.128;8.520;2023-07-16T11:32:58;100552.94;;;29.91;33.92
28428;BME280;15662;49.128;8.520;2023-07-16T11:35:26;100554.47;;;29.93;33.92
28428;BME280;15662;49.128;8.520;2023-07-16T11:37:56;100554.47;;;29.93;33.49
28428;BME280;15662;49.128;8.520;2023-07-16T11:40:25;100562.47;;;29.87;33.26
28428;BME280;15662;49.128;8.520;2023-07-16T11:42:53;100562.22;;;29.80;33.61
28428;BME280;15662;49.128;8.520;2023-07-16T11:45:23;100550.31;;;29.81;33.31
28428;BME280;15662;49.128;8.520;2023-07-16T11:47:54;100545.22;;;29.86;33.43
28428;BME280;15662;49.128;8.520;2023-07-16T11:50:22;100547.97;;;29.94;33.45
28428;BME280;15662;49.128;8.520;2023-07-16T11:53:00;100549.06;;;30.01;33.28
28428;BME280;15662;49.128;8.520;2023-07-16T11:55:28;100544.09;;;29.97;33.29
28428;BME280;15662;49.128;8.520;2023-07-16T11:57:56;100541.00;;;30.00;33.06
28428;BME280;15662;49.128;8.520;2023-07-16T12:00:25;100547.03;;;30.03;32.88
28428;BME280;15662;49.128;8.520;2023-07-16T12:02:53;100550.28;;;30.07;32.67
28428;BME280;15662;49.128;8.520;2023-07-16T12:05:22;100540.03;;;30.09;32.80
28428;BME280;15662;49.128;8.520;2023-07-16T12:08:12;100548.41;;;30.07;32.67
28428;BME280;15662;49.128;8.520;2023-07-16T12:10:42;100543.63;;;30.10;33.13
28428;BME280;15662;49.128;8.520;2023-07-16T12:13:10;100544.53;;;30.10;33.29
28428;BME280;15662;49.128;8.520;2023-07-16T12:15:38;100541.06;;;30.08;33.16
28428;BME280;15662;49.128;8.520;2023-07-16T12:18:06;100534.28;;;30.12;33.09
28428;BME280;15662;49.128;8.520;2023-07-16T12:20:34;100529.56;;;30.22;32.85
28428;BME280;15662;49.128;8.520;2023-07-16T12:23:04;100537.66;;;30.32;32.77
28428;BME280;15662;49.128;8.520;2023-07-16T12:25:32;100532.91;;;30.42;32.79
28428;BME280;15662;49.128;8.520;2023-07-16T12:28:00;100527.81;;;30.47;32.95
28428;BME280;15662;49.128;8.520;2023-07-16T12:30:29;100528.34;;;30.51;32.84
28428;BME280;15662;49.128;8.520;2023-07-16T12:32:57;100519.97;;;30.52;32.91
28428;BME280;15662;49.128;8.520;2023-07-16T12:35:25;100515.53;;;30.51;32.51
28428;BME280;15662;49.128;8.520;2023-07-16T12:37:53;100516.69;;;30.49;32.39
28428;BME280;15662;49.128;8.520;2023-07-16T12:40:21;100516.88;;;30.47;32.76
28428;BME280;15662;49.128;8.520;2023-07-16T12:42:49;100519.56;;;30.39;32.60
28428;BME280;15662;49.128;8.520;2023-07-16T12:45:16;100514.59;;;30.35;32.60
28428;BME280;15662;49.128;8.520;2023-07-16T12:47:44;100520.75;;;30.37;32.34
28428;BME280;15662;49.128;8.520;2023-07-16T12:50:12;100511.00;;;30.34;32.38
28428;BME280;15662;49.128;8.520;2023-07-16T12:52:40;100518.34;;;30.33;32.05
28428;BME280;15662;49.128;8.520;2023-07-16T12:55:08;100499.91;;;30.36;31.96
28428;BME280;15662;49.128;8.520;2023-07-16T12:57:36;100512.00;;;30.33;32.11
28428;BME280;15662;49.128;8.520;2023-07-16T13:00:04;100507.56;;;30.32;31.87
28428;BME280;15662;49.128;8.520;2023-07-16T13:02:33;100505.00;;;30.30;31.92
28428;BME280;15662;49.128;8.520;2023-07-16T13:05:01;100501.91;;;30.25;32.17
28428;BME280;15662;49.128;8.520;2023-07-16T13:07:30;100503.09;;;30.23;31.89
28428;BME280;15662;49.128;8.520;2023-07-16T13:09:59;100511.63;;;30.20;31.71
28428;BME280;15662;49.128;8.520;2023-07-16T13:12:45;100502.88;;;30.16;31.49
28428;BME280;15662;49.128;8.520;2023-07-16T13:15:12;100506.31;;;30.18;31.49
28428;BME280;15662;49.128;8.520;2023-07-16T13:17:40;100502.72;;;30.18;31.80
28428;BME280;15662;49.128;8.520;2023-07-16T13:20:08;100494.53;;;30.18;32.35
28428;BME280;15662;49.128;8.520;2023-07-16T13:22:37;100498.09;;;30.18;31.82